Time;durP1;ratioP1;P1;durP2;ratioP2;P2;SDS_P1;SDS_P2;PMS_P1;PMS_P2;Temp;Humidity;BMP_temperature;BMP_pressure;BME280_temperature;BME280_humidity;BME280_pressure;Samples;Min_cycle;Max_cycle;Signal;HPM_P1;HPM_P2
2022/02/12 00:01:06;;;;;;;18.90;10.97;;;;;;;1.54;79.93;101457.80;1329903;93;21606;-78
2022/02/12 00:03:33;;;;;;;18.97;11.33;;;;;;;1.47;79.65;101463.75;1479435;92;21564;-78
2022/02/12 00:06:01;;;;;;;17.77;10.93;;;;;;;1.40;79.86;101460.14;1475877;92;21489;-79
2022/02/12 00:08:28;;;;;;;20.23;12.17;;;;;;;1.31;80.29;101470.03;1483734;92;22429;-79
2022/02/12 00:10:55;;;;;;;20.93;11.03;;;;;;;1.24;80.45;101470.38;1319044;94;22440;-80
2022/02/12 00:13:23;;;;;;;16.33;10.30;;;;;;;1.23;80.58;101473.87;1416622;93;22402;-80
2022/02/12 00:15:49;;;;;;;23.07;12.80;;;;;;;1.28;81.00;101480.59;1337258;93;21504;-80
2022/02/12 00:18:16;;;;;;;18.23;10.83;;;;;;;1.23;80.45;101486.45;1459304;92;22513;-81
2022/02/12 00:20:44;;;;;;;23.17;12.40;;;;;;;1.19;80.41;101488.80;1337405;92;22953;-82
2022/02/12 00:23:11;;;;;;;20.40;11.00;;;;;;;1.17;80.56;101495.83;1337358;93;21643;-81
2022/02/12 00:25:38;;;;;;;20.40;12.33;;;;;;;1.17;80.93;101501.04;1399336;93;21490;-81
2022/02/12 00:28:05;;;;;;;24.07;11.47;;;;;;;1.16;80.94;101505.88;1337377;92;21344;-81
2022/02/12 00:30:32;;;;;;;19.50;10.93;;;;;;;1.16;80.96;101507.17;1447306;91;21436;-80
2022/02/12 00:32:59;;;;;;;16.80;10.77;;;;;;;1.14;80.83;101516.81;1341573;92;21518;-80
2022/02/12 00:35:27;;;;;;;19.60;10.70;;;;;;;1.16;80.65;101526.73;1337387;92;21469;-80
2022/02/12 00:37:55;;;;;;;19.20;10.87;;;;;;;1.11;80.26;101533.42;1337012;93;21515;-80
2022/02/12 00:40:22;;;;;;;19.77;11.50;;;;;;;1.07;80.21;101534.92;1336649;92;21513;-80
2022/02/12 00:42:50;;;;;;;20.57;11.37;;;;;;;1.03;80.51;101540.69;1431148;92;21574;-81
2022/02/12 00:45:18;;;;;;;24.33;11.10;;;;;;;0.96;80.34;101543.61;1336967;92;21585;-81
2022/02/12 00:47:45;;;;;;;22.30;10.63;;;;;;;0.92;80.37;101545.92;1476512;93;21615;-81
2022/02/12 00:50:12;;;;;;;14.60;9.20;;;;;;;0.84;80.54;101547.08;1373356;93;21535;-80
2022/02/12 00:56:46;;;;;;;12.90;7.93;;;;;;;0.70;81.00;101559.77;1417268;91;21939;-79
2022/02/12 00:59:14;;;;;;;12.90;7.30;;;;;;;0.55;81.94;101572.06;1442401;89;21832;-79
2022/02/12 01:01:41;;;;;;;12.23;7.33;;;;;;;0.60;81.31;101567.52;1423244;91;21718;-79
2022/02/12 01:04:08;;;;;;;8.10;5.53;;;;;;;0.62;80.39;101565.71;1420088;91;21927;-80
2022/02/12 01:06:35;;;;;;;8.50;5.43;;;;;;;0.63;79.37;101568.70;1422611;91;22612;-80
2022/02/12 01:09:03;;;;;;;13.27;7.13;;;;;;;0.64;79.08;101575.63;1420131;91;21615;-81
2022/02/12 01:11:30;;;;;;;8.63;4.73;;;;;;;0.64;79.00;101575.63;1417435;91;21682;-80
2022/02/12 01:13:57;;;;;;;9.37;5.00;;;;;;;0.64;78.40;101572.57;1424689;91;21692;-80
2022/02/12 01:16:25;;;;;;;8.87;4.43;;;;;;;0.69;77.33;101568.47;1421146;92;22692;-80
2022/02/12 01:18:52;;;;;;;7.63;4.23;;;;;;;0.78;77.01;101566.02;1418024;91;22770;-80
2022/02/12 01:21:19;;;;;;;9.27;4.60;;;;;;;0.84;76.91;101565.31;1418600;91;21791;-80
2022/02/12 01:23:48;;;;;;;9.67;5.70;;;;;;;0.87;76.34;101567.81;1422319;91;21803;-80
2022/02/12 01:26:16;;;;;;;6.80;3.47;;;;;;;0.93;74.88;101575.01;1418264;91;22763;-81
2022/02/12 01:28:43;;;;;;;6.47;3.83;;;;;;;1.00;72.98;101569.48;1420066;91;22851;-80
2022/02/12 01:31:10;;;;;;;7.93;3.50;;;;;;;1.09;72.73;101566.98;1405440;92;21759;-80
2022/02/12 01:33:37;;;;;;;6.47;3.10;;;;;;;1.17;72.68;101571.45;1423604;91;21667;-79
2022/02/12 01:36:05;;;;;;;5.60;3.50;;;;;;;1.20;72.63;101573.94;1424672;91;21507;-80
2022/02/12 01:38:32;;;;;;;4.33;2.20;;;;;;;1.21;70.83;101577.39;1419380;92;21789;-80
2022/02/12 01:40:59;;;;;;;6.43;3.10;;;;;;;1.34;68.57;101579.47;1410045;92;21878;-80
2022/02/12 01:43:26;;;;;;;10.13;2.63;;;;;;;1.47;69.71;101576.39;1417021;91;21784;-80
2022/02/12 01:45:54;;;;;;;5.90;3.10;;;;;;;1.50;68.93;101584.09;1424047;91;23960;-79
2022/02/12 01:48:21;;;;;;;7.80;3.60;;;;;;;1.56;70.83;101581.23;1422174;91;21798;-79
2022/02/12 01:50:51;;;;;;;7.63;3.73;;;;;;;1.55;70.78;101587.34;1404596;92;21921;-80
2022/02/12 01:53:25;;;;;;;9.37;4.40;;;;;;;1.51;70.73;101601.44;1422459;91;21690;-80
2022/02/12 01:55:55;;;;;;;5.03;3.47;;;;;;;1.43;70.27;101605.64;1398645;92;21630;-80
2022/02/12 01:58:22;;;;;;;7.23;3.70;;;;;;;1.32;70.40;101604.78;1415802;90;22628;-80
2022/02/12 02:00:49;;;;;;;8.27;3.33;;;;;;;1.32;70.13;101604.78;1432278;91;21720;-80
2022/02/12 02:03:16;;;;;;;9.13;3.90;;;;;;;1.33;69.96;101605.16;1431338;91;22721;-80
2022/02/12 02:05:45;;;;;;;7.27;4.00;;;;;;;1.37;70.12;101612.87;1441204;91;23753;-80
2022/02/12 02:08:12;;;;;;;7.47;3.50;;;;;;;1.38;70.46;101621.08;1433334;90;21578;-79
2022/02/12 02:10:40;;;;;;;5.73;3.40;;;;;;;1.33;70.16;101622.58;1434335;91;22308;-80
2022/02/12 02:13:07;;;;;;;4.87;2.80;;;;;;;1.29;70.26;101628.34;1438717;91;21695;-80
2022/02/12 02:15:34;;;;;;;6.13;3.07;;;;;;;1.23;69.94;101623.37;1432356;91;21778;-80
2022/02/12 02:18:01;;;;;;;9.93;4.30;;;;;;;1.22;70.21;101632.57;1439364;91;22679;-81
2022/02/12 02:20:29;;;;;;;8.17;4.40;;;;;;;1.20;69.88;101628.70;1435080;91;21985;-80
2022/02/12 02:22:57;;;;;;;6.80;4.03;;;;;;;1.16;69.61;101637.56;1423672;91;21622;-80
2022/02/12 02:25:25;;;;;;;4.47;3.00;;;;;;;1.11;69.09;101636.87;1432177;91;21577;-81
2022/02/12 02:27:53;;;;;;;5.97;3.17;;;;;;;1.08;69.41;101640.91;1429367;91;21848;-81
2022/02/12 02:30:26;;;;;;;7.20;3.67;;;;;;;1.09;69.23;101642.59;1430646;91;21752;-78
2022/02/12 02:32:51;;;;;;;7.33;3.83;;;;;;;1.09;69.82;101650.41;1437174;91;21816;-79
2022/02/12 02:35:19;;;;;;;5.27;3.17;;;;;;;1.05;68.95;101655.36;1436041;91;21518;-80
2022/02/12 02:37:48;;;;;;;6.77;3.30;;;;;;;1.07;69.46;101660.08;1430026;91;21616;-79
2022/02/12 02:40:21;;;;;;;7.93;3.50;;;;;;;1.05;69.72;101659.27;1431073;90;21607;-79
2022/02/12 02:42:52;;;;;;;6.10;3.00;;;;;;;1.04;70.27;101654.97;1434251;91;22737;-80
2022/02/12 02:45:20;;;;;;;5.35;3.37;;;;;;;1.02;70.68;101655.47;1434680;91;21766;-80
2022/02/12 02:47:47;;;;;;;8.23;3.80;;;;;;;0.97;70.84;101657.39;1430741;91;21515;-80
2022/02/12 02:56:00;;;;;;;9.37;3.53;;;;;;;0.78;71.27;101672.41;1431643;90;22764;-80
2022/02/12 02:58:43;;;;;;;9.80;3.53;;;;;;;0.73;71.20;101680.83;1430627;89;21754;-80
2022/02/12 03:01:20;;;;;;;7.17;3.50;;;;;;;0.68;71.12;101686.19;1432269;91;21657;-80
2022/02/12 03:03:51;;;;;;;6.90;3.90;;;;;;;0.65;71.39;101685.45;1434719;91;21770;-80
2022/02/12 03:06:22;;;;;;;6.67;3.80;;;;;;;0.65;71.71;101690.20;1435105;91;21818;-80
2022/02/12 03:08:49;;;;;;;8.15;4.00;;;;;;;0.62;71.87;101699.89;1436335;90;21556;-80
2022/02/12 03:11:17;;;;;;;9.60;4.80;;;;;;;0.54;71.91;101700.14;1428966;91;21524;-80
2022/02/12 03:13:47;;;;;;;6.33;3.93;;;;;;;0.52;72.12;101708.91;1437673;91;21701;-80
2022/02/12 03:16:15;;;;;;;9.03;4.80;;;;;;;0.43;72.28;101714.86;1432644;90;21748;-80
2022/02/12 03:18:46;;;;;;;6.47;3.23;;;;;;;0.35;72.33;101718.62;1430748;91;22916;-80
2022/02/12 03:21:13;;;;;;;16.80;6.10;;;;;;;0.31;72.76;101729.56;1433447;91;21753;-80
2022/02/12 03:23:42;;;;;;;6.90;4.15;;;;;;;0.26;72.88;101727.59;1432436;91;21573;-80
2022/02/12 03:26:10;;;;;;;5.77;4.20;;;;;;;0.23;72.81;101730.26;1435274;90;21635;-80
2022/02/12 03:28:37;;;;;;;7.27;3.77;;;;;;;0.22;72.97;101738.98;1437660;91;22065;-82
2022/02/12 03:31:05;;;;;;;9.83;4.08;;;;;;;0.20;73.06;101740.34;1423431;91;23107;-81
2022/02/12 03:33:32;;;;;;;12.98;4.45;;;;;;;0.18;73.03;101742.59;1435607;91;21390;-81
2022/02/12 03:35:59;;;;;;;10.75;4.30;;;;;;;0.12;73.04;101749.30;1436555;91;21958;-81
2022/02/12 03:38:31;;;;;;;7.40;4.33;;;;;;;0.06;73.49;101755.97;1432606;91;21464;-81
2022/02/12 03:41:00;;;;;;;;;;;;;;;-0.01;73.38;101760.08;1436022;91;21619;-81
2022/02/12 03:43:30;;;;;;;10.75;5.72;;;;;;;-0.06;73.67;101759.39;1431480;91;20535;-81
2022/02/12 03:45:58;;;;;;;6.80;4.28;;;;;;;-0.10;73.57;101760.36;1433350;91;21472;-82
2022/02/12 03:48:28;;;;;;;9.53;4.78;;;;;;;-0.18;73.52;101766.24;1434307;91;21397;-80
2022/02/12 03:50:56;;;;;;;7.15;4.40;;;;;;;-0.24;73.63;101769.03;1432951;91;21434;-81
2022/02/12 03:53:23;;;;;;;12.43;5.15;;;;;;;-0.33;73.69;101776.66;1434412;91;21316;-81
2022/02/12 03:55:51;;;;;;;13.15;4.67;;;;;;;-0.35;73.84;101778.91;1442458;90;21486;-81
2022/02/12 03:58:19;;;;;;;7.37;4.22;;;;;;;-0.33;74.16;101786.22;1428582;89;21435;-81
2022/02/12 04:00:49;;;;;;;6.53;4.80;;;;;;;-0.33;74.26;101789.67;1429718;92;21384;-82
2022/02/12 04:03:16;;;;;;;13.22;6.08;;;;;;;-0.35;74.30;101778.91;1421983;92;21560;-81
2022/02/12 04:05:45;;;;;;;12.88;6.45;;;;;;;-0.43;74.22;101775.66;1428009;92;21547;-82
2022/02/12 04:08:22;;;;;;;9.43;4.83;;;;;;;-0.53;74.25;101776.39;1424916;91;22353;-81
2022/02/12 04:10:50;;;;;;;11.08;5.00;;;;;;;-0.59;74.58;101780.02;1422549;91;21568;-81
2022/02/12 04:13:19;;;;;;;10.93;6.25;;;;;;;-0.61;74.78;101779.20;1414252;91;21657;-81
2022/02/12 04:15:47;;;;;;;16.82;9.00;;;;;;;-0.65;74.92;101774.14;1430673;91;21501;-81
2022/02/12 04:18:16;;;;;;;11.30;6.83;;;;;;;-0.68;74.94;101772.48;1426473;92;21502;-81
2022/02/12 04:20:44;;;;;;;12.07;5.80;;;;;;;-0.72;74.92;101774.73;1426071;92;21574;-81
2022/02/12 04:23:12;;;;;;;19.10;10.70;;;;;;;-0.77;75.85;101777.94;1423115;92;21546;-82
2022/02/12 04:25:39;;;;;;;23.50;11.63;;;;;;;-0.84;75.76;101778.98;1402044;93;21429;-81
2022/02/12 04:28:08;;;;;;;16.40;10.28;;;;;;;-0.84;75.83;101781.58;1382624;94;21437;-81
2022/02/12 04:30:37;;;;;;;20.20;10.45;;;;;;;-0.88;76.43;101778.67;1384976;94;22474;-81
2022/02/12 04:33:07;;;;;;;15.90;8.15;;;;;;;-0.89;76.38;101786.05;1408708;93;22390;-81
2022/02/12 04:35:35;;;;;;;14.50;8.33;;;;;;;-0.89;76.36;101794.72;1383851;93;21648;-81
2022/02/12 04:38:02;;;;;;;13.90;8.25;;;;;;;-0.91;76.56;101792.60;1397230;93;21665;-81
2022/02/12 04:40:31;;;;;;;12.93;7.85;;;;;;;-1.01;76.54;101796.32;1392798;94;21687;-81
2022/02/12 04:42:58;;;;;;;11.80;6.85;;;;;;;-1.05;76.60;101792.95;1386529;94;21695;-82
2022/02/12 04:45:25;;;;;;;13.08;7.65;;;;;;;-1.10;77.18;101800.02;1391960;94;21541;-81
2022/02/12 04:47:53;;;;;;;13.48;8.83;;;;;;;-1.14;76.99;101790.15;1398057;94;21599;-81
2022/02/12 04:50:20;;;;;;;13.78;7.78;;;;;;;-1.17;77.19;101801.08;1403515;93;21435;-81
2022/02/12 04:52:48;;;;;;;18.05;10.05;;;;;;;-1.20;76.97;101793.36;1393952;94;21620;-82
2022/02/12 04:55:16;;;;;;;15.85;8.55;;;;;;;-1.24;77.54;101803.41;1397825;94;21576;-81
2022/02/12 04:57:43;;;;;;;14.43;8.65;;;;;;;-1.28;77.39;101819.52;1405523;92;21741;-81
2022/02/12 05:00:11;;;;;;;13.32;8.20;;;;;;;-1.28;77.42;101814.78;1416545;90;21663;-82
2022/02/12 05:02:41;;;;;;;12.33;7.17;;;;;;;-1.34;77.89;101817.53;1432263;91;22336;-82
2022/02/12 05:05:09;;;;;;;16.85;8.00;;;;;;;-1.37;77.80;101815.41;1437171;90;21448;-81
2022/02/12 05:07:36;;;;;;;15.72;8.10;;;;;;;-1.41;77.92;101815.09;1435756;91;21390;-81
2022/02/12 05:10:05;;;;;;;18.42;8.75;;;;;;;-1.45;78.15;101813.44;1432459;91;21637;-81
2022/02/12 05:12:32;;;;;;;17.45;8.70;;;;;;;-1.46;78.05;101813.03;1428962;91;21597;-81
2022/02/12 05:15:00;;;;;;;11.35;6.95;;;;;;;-1.47;77.89;101825.59;1415079;91;21377;-81
2022/02/12 05:17:27;;;;;;;15.93;7.55;;;;;;;-1.45;78.23;101817.33;1416163;91;21428;-81
2022/02/12 05:19:54;;;;;;;13.38;6.97;;;;;;;-1.44;78.29;101824.25;1430263;91;21405;-80
2022/02/12 05:22:21;;;;;;;22.52;10.25;;;;;;;-1.42;78.53;101821.59;1434246;91;22322;-81
2022/02/12 05:24:49;;;;;;;15.05;7.03;;;;;;;-1.42;78.30;101825.05;1422338;91;21467;-81
2022/02/12 05:27:16;;;;;;;12.13;6.72;;;;;;;-1.40;78.30;101827.17;1441858;91;21436;-81
2022/02/12 05:29:44;;;;;;;12.13;7.62;;;;;;;-1.40;78.64;101838.01;1431373;91;21375;-81
2022/02/12 05:32:11;;;;;;;12.85;7.92;;;;;;;-1.48;79.31;101837.33;1434672;91;21375;-81
2022/02/12 05:34:38;;;;;;;12.20;6.83;;;;;;;-1.52;78.79;101831.36;1432947;91;21427;-80
2022/02/12 05:37:06;;;;;;;13.35;6.97;;;;;;;-1.60;78.79;101833.28;1424432;91;22469;-80
2022/02/12 05:39:33;;;;;;;14.43;8.10;;;;;;;-1.64;78.56;101841.59;1426524;91;22390;-81
2022/02/12 05:42:00;;;;;;;20.30;10.28;;;;;;;-1.68;78.52;101837.34;1433795;91;21724;-81
2022/02/12 05:44:27;;;;;;;18.82;8.93;;;;;;;-1.70;78.46;101837.81;1432396;91;23266;-82
2022/02/12 05:46:54;;;;;;;20.20;9.75;;;;;;;-1.69;78.63;101838.69;1427230;91;22307;-81
2022/02/12 05:49:21;;;;;;;22.93;12.63;;;;;;;-1.67;78.77;101843.38;1436846;91;21331;-81
2022/02/12 05:51:48;;;;;;;25.00;14.10;;;;;;;-1.67;78.78;101840.78;1439141;91;21434;-81
2022/02/12 05:54:15;;;;;;;26.90;14.58;;;;;;;-1.67;78.62;101839.48;1434641;91;21419;-81
2022/02/12 05:56:42;;;;;;;22.35;13.53;;;;;;;-1.67;78.57;101849.45;1423328;91;21383;-81
2022/02/12 05:59:12;;;;;;;22.30;11.35;;;;;;;-1.65;78.90;101846.80;1428338;90;21479;-81
2022/02/12 06:01:40;;;;;;;20.85;13.58;;;;;;;-1.62;78.90;101848.88;1430421;91;21442;-82
2022/02/12 06:04:08;;;;;;;21.35;11.08;;;;;;;-1.60;79.13;101854.05;1425681;91;21546;-81
2022/02/12 06:06:35;;;;;;;29.77;16.30;;;;;;;-1.61;79.18;101864.04;1421455;91;22469;-81
2022/02/12 06:09:02;;;;;;;27.67;14.05;;;;;;;-1.63;79.07;101869.25;1428014;91;21590;-82
2022/02/12 06:11:29;;;;;;;30.30;15.28;;;;;;;-1.59;79.29;101873.92;1426124;91;21595;-81
2022/02/12 06:13:56;;;;;;;29.90;16.95;;;;;;;-1.58;79.67;101886.04;1427827;91;21405;-80
2022/02/12 06:16:24;;;;;;;41.23;23.25;;;;;;;-1.55;79.67;101887.27;1429422;91;21552;-80
2022/02/12 06:18:51;;;;;;;45.15;23.35;;;;;;;-1.52;79.89;101894.98;1427398;91;21626;-80
2022/02/12 06:21:18;;;;;;;39.50;21.80;;;;;;;-1.44;79.79;101896.97;1425684;91;21464;-81
2022/02/12 06:23:45;;;;;;;37.13;20.90;;;;;;;-1.32;79.80;101904.04;1420621;91;21613;-81
2022/02/12 06:26:12;;;;;;;40.92;20.60;;;;;;;-1.22;79.72;101908.99;1430779;91;22448;-81
2022/02/12 06:28:40;;;;;;;41.73;18.95;;;;;;;-1.12;79.67;101905.75;1432065;91;22415;-81
2022/02/12 06:31:07;;;;;;;37.13;20.40;;;;;;;-1.02;79.63;101910.27;1432180;91;21627;-81
2022/02/12 06:33:34;;;;;;;53.15;27.65;;;;;;;-0.89;79.56;101914.70;1426755;91;21569;-81
2022/02/12 06:36:01;;;;;;;51.98;26.73;;;;;;;-0.78;79.42;101911.39;1429050;91;21550;-81
2022/02/12 06:38:29;;;;;;;54.03;26.40;;;;;;;-0.74;79.03;101920.39;1428901;91;21599;-81
2022/02/12 06:40:56;;;;;;;45.28;24.72;;;;;;;-0.62;79.06;101924.87;1420166;91;21590;-80
2022/02/12 06:43:24;;;;;;;41.68;22.25;;;;;;;-0.52;78.90;101919.41;1432912;91;21650;-80
2022/02/12 06:45:51;;;;;;;35.48;19.87;;;;;;;-0.43;78.68;101926.53;1422149;91;21591;-80
2022/02/12 06:48:18;;;;;;;39.63;21.23;;;;;;;-0.34;78.51;101927.61;1429591;91;22587;-81
2022/02/12 06:50:47;;;;;;;39.55;20.25;;;;;;;-0.21;78.46;101934.63;1427259;91;21554;-80
2022/02/12 06:53:14;;;;;;;36.10;21.93;;;;;;;-0.09;78.27;101939.03;1423623;91;22449;-82
2022/02/12 06:55:41;;;;;;;34.15;20.23;;;;;;;0.03;78.29;101940.47;1426447;91;22258;-81
2022/02/12 06:58:08;;;;;;;40.80;21.50;;;;;;;0.14;78.00;101945.36;1419981;91;22043;-81
2022/02/12 07:00:36;;;;;;;46.47;23.57;;;;;;;0.28;77.85;101948.87;1424419;91;21598;-80
2022/02/12 07:03:03;;;;;;;31.53;18.90;;;;;;;0.37;77.31;101949.44;1422849;92;22050;-81
2022/02/12 07:05:30;;;;;;;36.20;17.53;;;;;;;0.48;77.15;101954.34;1423574;91;21830;-80
2022/02/12 07:07:57;;;;;;;29.70;16.37;;;;;;;0.63;77.15;101963.02;1421143;92;21752;-81
2022/02/12 07:10:24;;;;;;;34.87;18.60;;;;;;;0.74;76.60;101965.28;1426535;92;21809;-80
2022/02/12 07:12:51;;;;;;;27.93;16.83;;;;;;;0.90;76.58;101976.95;1422021;91;21749;-80
2022/02/12 07:15:19;;;;;;;26.30;13.60;;;;;;;1.06;76.44;101980.38;1418450;92;21807;-80
2022/02/12 07:17:46;;;;;;;23.93;12.73;;;;;;;1.17;75.82;101986.10;1419523;91;21842;-80
2022/02/12 07:20:14;;;;;;;26.37;12.97;;;;;;;1.27;75.20;101987.52;1422407;92;22746;-79
2022/02/12 07:22:42;;;;;;;37.00;17.30;;;;;;;1.35;74.31;101993.34;1420873;91;22631;-80
2022/02/12 07:25:11;;;;;;;29.17;15.90;;;;;;;1.43;73.63;101998.30;1421568;92;21629;-80
2022/02/12 07:27:39;;;;;;;35.13;19.23;;;;;;;1.54;74.00;102001.86;1414867;92;21751;-79
2022/02/12 07:30:11;;;;;;;30.23;16.03;;;;;;;1.66;73.92;102007.12;1418952;91;22581;-79
2022/02/12 07:32:40;;;;;;;30.70;16.87;;;;;;;1.85;74.42;102004.75;1416409;91;21743;-80
2022/02/12 07:35:10;;;;;;;34.20;17.30;;;;;;;2.08;74.52;102004.79;1424139;91;21662;-80
2022/02/12 07:37:40;;;;;;;34.37;17.20;;;;;;;2.29;74.32;102003.61;1422344;91;21612;-80
2022/02/12 07:40:08;;;;;;;33.87;16.10;;;;;;;2.48;73.93;102013.80;1419635;91;21636;-80
2022/02/12 07:42:37;;;;;;;29.63;16.60;;;;;;;2.68;73.48;102015.67;1421484;91;21571;-80
2022/02/12 07:45:06;;;;;;;32.10;16.40;;;;;;;2.80;72.52;102018.27;1422826;91;21694;-81
2022/02/12 07:47:33;;;;;;;30.90;14.27;;;;;;;2.91;71.21;102023.94;1419481;91;21779;-81
2022/02/12 07:50:00;;;;;;;28.77;15.20;;;;;;;3.06;71.45;102025.11;1418511;91;21776;-79
2022/02/12 07:52:27;;;;;;;31.03;16.03;;;;;;;3.42;71.96;102035.84;1409968;90;21899;-79
2022/02/12 07:54:54;;;;;;;24.27;14.00;;;;;;;3.42;71.96;102035.84;1411661;91;22869;-79
2022/02/12 07:57:21;;;;;;;26.37;14.37;;;;;;;3.72;70.54;102028.98;1413821;93;21848;-78
2022/02/12 07:59:49;;;;;;;27.03;14.77;;;;;;;3.72;70.54;102028.98;1402470;93;21994;-79
2022/02/12 08:02:16;;;;;;;26.07;15.90;;;;;;;3.94;69.39;102040.69;1421169;92;22252;-80
2022/02/12 08:04:43;;;;;;;26.70;14.73;;;;;;;3.94;69.39;102040.69;1412977;92;22905;-81
2022/02/12 08:07:29;;;;;;;23.43;13.50;;;;;;;4.03;67.48;102051.64;1431832;91;23189;-80
2022/02/12 08:11:22;;;;;;;21.30;13.23;;;;;;;4.13;67.34;102057.80;1428167;90;22352;-79
2022/02/12 08:12:31;;;;;;;24.90;14.97;;;;;;;4.27;67.40;102068.53;1425633;89;22223;-79
2022/02/12 08:15:12;;;;;;;29.47;15.07;;;;;;;4.19;67.06;102077.17;1427082;91;24172;-80
2022/02/12 08:17:40;;;;;;;24.70;15.03;;;;;;;4.19;67.06;102077.17;1432121;90;22338;-80
2022/02/12 08:20:09;;;;;;;26.70;16.80;;;;;;;4.27;67.55;102082.95;1433160;90;22291;-80
2022/02/12 08:22:42;;;;;;;25.53;13.87;;;;;;;4.40;67.78;102088.05;1438262;91;21560;-80
2022/02/12 08:25:10;;;;;;;19.87;12.17;;;;;;;4.33;64.77;102096.24;1423325;91;22337;-79
2022/02/12 08:27:38;;;;;;;16.87;9.63;;;;;;;4.20;65.28;102093.28;1428613;91;21505;-81
2022/02/12 08:30:07;;;;;;;18.97;9.03;;;;;;;4.00;65.92;102093.69;1437045;91;21428;-80
2022/02/12 08:32:35;;;;;;;11.97;6.93;;;;;;;4.00;65.92;102109.41;1437581;91;21571;-80
2022/02/12 08:35:03;;;;;;;14.27;7.73;;;;;;;3.93;65.32;102097.47;1432963;89;21399;-81
2022/02/12 08:37:30;;;;;;;13.63;7.40;;;;;;;3.91;65.12;102105.00;1433300;91;23243;-81
2022/02/12 08:39:58;;;;;;;18.97;7.93;;;;;;;3.89;65.78;102115.55;1430850;91;21554;-80
2022/02/12 08:42:26;;;;;;;11.30;7.13;;;;;;;3.83;65.36;102122.36;1431434;91;21607;-80
2022/02/12 08:44:53;;;;;;;10.27;6.63;;;;;;;3.80;64.78;102126.41;1437145;91;22229;-80
2022/02/12 08:47:20;;;;;;;11.83;6.10;;;;;;;3.63;63.54;102136.72;1435728;91;22333;-81
2022/02/12 08:49:47;;;;;;;12.03;6.33;;;;;;;3.52;63.76;102141.06;1434569;91;22259;-81
2022/02/12 08:52:14;;;;;;;11.73;6.20;;;;;;;3.50;64.48;102142.41;1432077;91;22285;-81
2022/02/12 08:54:41;;;;;;;11.93;6.97;;;;;;;3.44;64.23;102145.27;1413310;91;24209;-81
2022/02/12 08:57:09;;;;;;;9.90;5.73;;;;;;;3.43;64.51;102150.12;1434400;91;22276;-80
2022/02/12 08:59:36;;;;;;;11.67;6.33;;;;;;;3.42;64.31;102160.18;1435020;91;22335;-81
2022/02/12 09:02:03;;;;;;;25.40;11.20;;;;;;;3.46;64.11;102159.17;1429481;91;22234;-81
2022/02/12 09:04:31;;;;;;;120.67;46.63;;;;;;;3.49;64.24;102170.83;1434771;91;22088;-81
2022/02/12 09:06:58;;;;;;;37.63;16.23;;;;;;;3.55;64.67;102177.12;1419508;91;22312;-81
2022/02/12 09:09:25;;;;;;;21.10;9.20;;;;;;;3.62;63.44;102180.34;1428980;91;24447;-82
2022/02/12 09:11:52;;;;;;;24.67;10.93;;;;;;;3.70;64.22;102186.61;1437110;91;22185;-81
2022/02/12 09:14:19;;;;;;;65.57;24.13;;;;;;;3.87;64.20;102187.25;1437850;91;22157;-81
2022/02/12 09:16:46;;;;;;;20.57;8.03;;;;;;;4.02;62.46;102190.09;1433073;91;22143;-82
2022/02/12 09:19:13;;;;;;;45.90;15.97;;;;;;;4.02;62.46;102190.09;1436847;91;21427;-81
2022/02/12 09:21:40;;;;;;;97.57;33.73;;;;;;;4.09;62.91;102195.11;1430463;91;21418;-81
2022/02/12 09:24:08;;;;;;;30.10;11.90;;;;;;;4.09;63.43;102196.42;1429744;91;22160;-80
2022/02/12 09:26:35;;;;;;;127.47;44.73;;;;;;;4.06;63.06;102194.31;1427672;91;21823;-81
2022/02/12 09:29:07;;;;;;;78.27;28.33;;;;;;;3.98;63.74;102199.00;1434684;91;21509;-81
2022/02/12 09:31:34;;;;;;;107.97;40.50;;;;;;;3.78;63.49;102202.87;1445787;91;22983;-81
2022/02/12 09:34:02;;;;;;;21.70;9.20;;;;;;;3.69;64.67;102202.78;1363293;91;23455;-81
2022/02/12 09:36:29;;;;;;;132.17;46.63;;;;;;;3.85;64.00;102201.70;1477802;90;23006;-81
2022/02/12 09:38:56;;;;;;;122.43;49.13;;;;;;;4.81;63.82;102203.40;1353066;92;21230;-80
2022/02/12 09:41:25;;;;;;;76.47;32.97;;;;;;;5.78;61.34;102203.78;1360786;91;21294;-80
2022/02/12 09:43:55;;;;;;;85.67;36.83;;;;;;;6.36;57.49;102209.75;1345919;93;21369;-80
2022/02/12 09:46:33;;;;;;;55.03;25.88;;;;;;;7.36;58.02;102198.34;1357123;91;21243;-80
2022/02/12 09:49:03;;;;;;;39.17;15.93;;;;;;;8.11;54.00;102203.39;1512393;91;21295;-80
2022/02/12 09:51:32;;;;;;;8.37;4.10;;;;;;;8.61;53.45;102207.99;1511102;91;21294;-81
2022/02/12 09:53:59;;;;;;;10.07;5.93;;;;;;;8.34;51.86;102206.46;1358967;91;22205;-80
2022/02/12 09:56:26;;;;;;;6.97;3.57;;;;;;;8.88;49.84;102205.47;1446997;91;21450;-81
2022/02/12 09:58:54;;;;;;;11.77;6.53;;;;;;;8.45;49.51;102214.62;1360494;91;22151;-80
2022/02/12 10:01:21;;;;;;;6.47;3.70;;;;;;;8.98;49.31;102207.09;1443770;91;21458;-80
2022/02/12 10:03:52;;;;;;;41.10;21.27;;;;;;;8.52;49.48;102213.34;1355244;91;21250;-80
2022/02/12 10:06:38;;;;;;;;;;;;;;;9.22;49.96;102206.05;1353553;91;21443;-80
2022/02/12 10:09:06;;;;;;;15.43;7.27;;;;;;;9.09;48.19;102202.01;1414611;91;20401;-80
2022/02/12 10:11:50;;;;;;;10.77;5.13;;;;;;;9.78;47.65;102200.30;1359142;91;21370;-81
2022/02/12 10:14:25;;;;;;;43.43;20.00;;;;;;;9.20;45.58;102209.25;1411512;91;23599;-80
2022/02/12 10:16:58;;;;;;;8.97;4.30;;;;;;;9.96;48.87;102212.78;1407218;91;21441;-80
2022/02/12 10:19:36;;;;;;;50.13;26.13;;;;;;;10.35;46.83;102209.31;1427682;91;21420;-79
2022/02/12 10:22:19;;;;;;;8.20;5.60;;;;;;;11.03;47.96;102208.70;1419304;92;21436;-81
2022/02/12 10:25:00;;;;;;;26.70;13.93;;;;;;;10.55;43.05;102203.16;1328738;93;22168;-79
2022/02/12 10:27:37;;;;;;;18.57;9.68;;;;;;;10.55;43.66;102200.52;1337710;94;21369;-78
2022/02/12 10:30:05;;;;;;;8.10;5.20;;;;;;;10.58;45.26;102205.59;1421771;92;22813;-80
2022/02/12 10:32:33;;;;;;;12.10;5.70;;;;;;;10.89;43.40;102194.23;1353761;91;22233;-80
2022/02/12 10:35:02;;;;;;;39.77;23.07;;;;;;;10.43;45.18;102193.41;1486234;91;21214;-80
2022/02/12 10:37:29;;;;;;;8.77;5.60;;;;;;;9.92;45.99;102198.89;1460940;91;21436;-80
2022/02/12 10:40:00;;;;;;;10.90;6.43;;;;;;;10.38;45.28;102195.87;1354950;91;22361;-80
2022/02/12 10:42:30;;;;;;;4.03;2.47;;;;;;;10.51;42.82;102195.91;1386670;91;21495;-80
2022/02/12 10:44:58;;;;;;;4.87;2.35;;;;;;;8.94;41.32;102196.33;1431117;91;21605;-81
2022/02/12 10:47:26;;;;;;;8.90;3.50;;;;;;;8.31;42.50;102196.93;1430283;91;21528;-81
2022/02/12 10:49:53;;;;;;;5.00;3.13;;;;;;;8.71;46.82;102189.33;1425979;91;21375;-82
2022/02/12 10:52:22;;;;;;;6.53;3.10;;;;;;;8.67;43.34;102186.98;1427182;91;22610;-83
2022/02/12 10:54:51;;;;;;;10.80;6.33;;;;;;;8.48;42.31;102183.26;1424503;91;21530;-85
2022/02/12 10:57:29;;;;;;;7.73;4.23;;;;;;;8.95;45.99;102179.08;1428991;91;21620;-83
2022/02/12 10:59:54;;;;;;;6.77;3.03;;;;;;;8.55;42.85;102184.12;1422696;91;21524;-84
2022/02/12 11:02:27;;;;;;;5.10;3.17;;;;;;;8.32;43.48;102176.23;1425546;91;21619;-82
2022/02/12 11:05:00;;;;;;;6.70;3.00;;;;;;;8.14;43.43;102175.97;1428692;91;22566;-83
2022/02/12 11:07:28;;;;;;;4.00;2.03;;;;;;;8.28;41.19;102181.28;1426447;91;21479;-82
2022/02/12 11:09:56;;;;;;;4.90;2.90;;;;;;;7.90;41.47;102183.51;1418272;92;21532;-83
2022/02/12 11:12:29;;;;;;;4.27;2.27;;;;;;;8.00;42.08;102187.34;1419758;90;21434;-83
2022/02/12 11:14:54;;;;;;;12.43;7.03;;;;;;;8.24;42.26;102178.94;1417284;91;21835;-82
2022/02/12 11:17:25;;;;;;;6.10;3.47;;;;;;;8.48;41.53;102184.10;1421149;91;21497;-83
2022/02/12 11:19:52;;;;;;;;;;;;;;;8.54;39.33;102185.05;1412200;91;21472;-84
2022/02/12 11:22:19;;;;;;;5.83;2.53;;;;;;;8.52;41.53;102179.52;1406594;92;21114;-83
2022/02/12 11:24:47;;;;;;;4.07;2.70;;;;;;;8.70;41.61;102176.23;1397070;91;21520;-81
2022/02/12 11:27:21;;;;;;;4.83;2.40;;;;;;;8.32;38.27;102172.75;1396323;91;21582;-81
2022/02/12 11:30:10;;;;;;;4.20;1.97;;;;;;;7.95;38.73;102174.03;1407263;92;22482;-80
2022/02/12 11:32:44;;;;;;;4.37;2.87;;;;;;;7.96;38.83;102172.61;1380500;93;21546;-80
2022/02/12 11:35:17;;;;;;;3.97;1.80;;;;;;;8.70;40.77;102178.87;1404839;91;21384;-81
2022/02/12 11:37:47;;;;;;;4.93;3.17;;;;;;;8.62;36.94;102182.44;1405647;92;21517;-80